createdAt,value
2023-03-29T00:00:16.005Z,98419.09
2023-03-29T00:02:49.165Z,98431.74
2023-03-29T00:05:19.727Z,98410.47
2023-03-29T00:07:54.527Z,98420.90
2023-03-29T00:10:24.317Z,98425.55
2023-03-29T00:12:52.837Z,98429.46
2023-03-29T00:15:21.945Z,98426.20
2023-03-29T00:17:50.442Z,98428.77
2023-03-29T00:20:18.892Z,98430.79
2023-03-29T00:22:49.825Z,98434.88
2023-03-29T00:25:18.326Z,98439.42
2023-03-29T00:27:47.197Z,98445.50
2023-03-29T00:30:16.653Z,98440.31
2023-03-29T00:32:46.175Z,98443.95
2023-03-29T00:35:16.727Z,98453.44
2023-03-29T00:37:51.108Z,98453.48
2023-03-29T00:40:19.935Z,98460.48
2023-03-29T00:42:51.469Z,98461.98
2023-03-29T00:45:21.803Z,98462.33
2023-03-29T00:47:57.405Z,98476.95
2023-03-29T00:50:41.392Z,98473.04
2023-03-29T00:53:29.894Z,98479.20
2023-03-29T00:56:25.555Z,98481.83
2023-03-29T00:58:57.357Z,98478.70
2023-03-29T01:01:34.263Z,98486.61
2023-03-29T01:04:49.778Z,98486.77
2023-03-29T01:07:22.047Z,98491.85
2023-03-29T01:09:58.660Z,98497.63
2023-03-29T01:12:29.821Z,98491.14
2023-03-29T01:15:28.436Z,98489.21
2023-03-29T01:17:58.497Z,98488.80
2023-03-29T01:20:36.277Z,98495.16
2023-03-29T01:23:14.145Z,98485.72
2023-03-29T01:25:52.258Z,98493.30
2023-03-29T01:28:26.806Z,98502.86
2023-03-29T01:30:57.483Z,98494.88
2023-03-29T01:33:36.562Z,98497.24
2023-03-29T01:36:19.311Z,98504.28
2023-03-29T01:38:48.645Z,98504.29
2023-03-29T01:41:18.171Z,98501.22
2023-03-29T01:43:46.638Z,98508.27
2023-03-29T01:46:14.962Z,98507.14
2023-03-29T01:48:49.466Z,98504.33
2023-03-29T01:51:25.624Z,98509.32
2023-03-29T01:54:04.808Z,98508.02
2023-03-29T01:56:39.250Z,98513.04
2023-03-29T01:59:11.303Z,98524.59
2023-03-29T02:01:43.516Z,98521.89
2023-03-29T02:04:13.580Z,98517.02
2023-03-29T02:06:45.793Z,98532.36
2023-03-29T02:09:15.046Z,98522.22
2023-03-29T02:11:43.372Z,98526.53
2023-03-29T02:14:11.674Z,98540.28
2023-03-29T02:16:40.461Z,98535.07
2023-03-29T02:19:08.953Z,98528.17
2023-03-29T02:21:41.119Z,98526.56
2023-03-29T02:24:11.439Z,98534.80
2023-03-29T02:26:40.123Z,98531.55
2023-03-29T02:29:08.705Z,98530.36
2023-03-29T02:32:30.543Z,98537.89
2023-03-29T02:35:12.911Z,98536.43
2023-03-29T02:37:43.217Z,98535.98
2023-03-29T02:40:13.119Z,98530.64
2023-03-29T02:42:42.309Z,98531.80
2023-03-29T02:45:19.357Z,98534.01
2023-03-29T02:47:51.887Z,98539.02
2023-03-29T02:50:21.429Z,98538.95
2023-03-29T02:52:54.309Z,98537.38
2023-03-29T02:55:23.514Z,98536.46
2023-03-29T02:57:55.266Z,98533.56
2023-03-29T03:00:24.261Z,98537.94
2023-03-29T03:02:53.183Z,98535.23
2023-03-29T03:05:27.577Z,98545.65
2023-03-29T03:07:56.334Z,98535.48
2023-03-29T03:10:24.725Z,98534.62
2023-03-29T03:12:53.721Z,98540.67
2023-03-29T03:15:22.606Z,98536.03
2023-03-29T03:17:50.884Z,98538.98
2023-03-29T03:20:22.280Z,98544.09
2023-03-29T03:22:51.944Z,98547.98
2023-03-29T03:25:23.783Z,98545.66
2023-03-29T03:27:53.343Z,98554.01
2023-03-29T03:30:23.713Z,98552.34
2023-03-29T03:33:19.466Z,98544.56
2023-03-29T03:36:10.447Z,98557.02
2023-03-29T03:38:39.757Z,98560.50
2023-03-29T03:41:09.241Z,98571.54
2023-03-29T03:43:48.848Z,98570.52
2023-03-29T03:46:18.064Z,98568.43
2023-03-29T03:48:47.059Z,98569.70
2023-03-29T03:51:31.519Z,98568.26
2023-03-29T03:54:00.506Z,98569.93
2023-03-29T03:56:49.949Z,98560.77
2023-03-29T03:59:25.204Z,98567.80
2023-03-29T04:02:16.596Z,98571.26
2023-03-29T04:04:45.227Z,98578.71
2023-03-29T04:07:18.200Z,98575.26
2023-03-29T04:10:17.282Z,98584.13
2023-03-29T04:12:52.632Z,98580.70
2023-03-29T04:15:24.425Z,98587.87
2023-03-29T04:18:00.335Z,98590.16
2023-03-29T04:20:35.326Z,98582.61
2023-03-29T04:23:04.162Z,98585.05
2023-03-29T04:25:33.480Z,98589.59
2023-03-29T04:28:21.625Z,98592.60
2023-03-29T04:30:55.173Z,98590.30
2023-03-29T04:33:49.797Z,98594.18
2023-03-29T04:36:18.571Z,98595.20
2023-03-29T04:38:48.113Z,98598.40
2023-03-29T04:41:17.284Z,98592.18
2023-03-29T04:44:18.355Z,98592.02
2023-03-29T04:46:46.879Z,98602.96
2023-03-29T04:49:33.926Z,98601.73
2023-03-29T04:52:03.017Z,98604.23
2023-03-29T04:54:38.870Z,98605.42
2023-03-29T04:57:39.499Z,98607.12
2023-03-29T05:00:26.980Z,98611.89
2023-03-29T05:03:11.669Z,98603.92
2023-03-29T05:05:42.512Z,98614.27
2023-03-29T05:08:13.367Z,98607.29
2023-03-29T05:11:02.193Z,98610.80
2023-03-29T05:13:30.898Z,98619.60
2023-03-29T05:16:00.806Z,98609.39
2023-03-29T05:18:30.100Z,98609.43
2023-03-29T05:20:58.715Z,98616.43
2023-03-29T05:23:29.114Z,98615.55
2023-03-29T05:26:16.136Z,98624.36
2023-03-29T05:28:50.917Z,98613.83
2023-03-29T05:31:20.065Z,98616.10
2023-03-29T05:33:57.489Z,98618.01
2023-03-29T05:36:28.526Z,98615.75
2023-03-29T05:38:57.313Z,98622.85
2023-03-29T05:41:26.152Z,98633.79
2023-03-29T05:44:13.379Z,98626.30
2023-03-29T05:46:43.536Z,98620.16
2023-03-29T05:49:14.713Z,98616.43
2023-03-29T05:52:04.142Z,98625.59
2023-03-29T05:54:33.697Z,98624.11
2023-03-29T05:57:03.669Z,98612.38
2023-03-29T05:59:32.911Z,98619.86
2023-03-29T06:02:03.734Z,98615.85
2023-03-29T06:04:33.696Z,98627.80
2023-03-29T06:07:28.543Z,98626.67
2023-03-29T06:10:16.079Z,98607.84
2023-03-29T06:12:49.581Z,98623.70
2023-03-29T06:15:19.996Z,98626.14
2023-03-29T06:17:51.604Z,98626.46
2023-03-29T06:20:20.841Z,98621.78
2023-03-29T06:22:53.621Z,98618.32
2023-03-29T06:25:28.552Z,98631.78
2023-03-29T06:27:57.753Z,98640.05
2023-03-29T06:30:26.060Z,98631.45
2023-03-29T06:33:02.271Z,98638.83
2023-03-29T06:35:51.760Z,98656.52
2023-03-29T06:38:26.418Z,98653.64
2023-03-29T06:41:17.999Z,98655.32
2023-03-29T06:44:06.972Z,98652.58
2023-03-29T06:46:39.077Z,98659.69
2023-03-29T06:49:08.835Z,98669.02
2023-03-29T06:52:02.443Z,98667.86
2023-03-29T06:54:31.841Z,98684.89
2023-03-29T06:57:08.002Z,98680.40
2023-03-29T06:59:38.287Z,98676.27
2023-03-29T07:02:23.758Z,98678.10
2023-03-29T07:05:01.566Z,98685.00
2023-03-29T07:07:53.510Z,98692.02
2023-03-29T07:10:41.270Z,98684.82
2023-03-29T07:13:33.248Z,98688.85
2023-03-29T07:16:04.162Z,98697.55
2023-03-29T07:18:54.573Z,98690.73
2023-03-29T07:21:42.097Z,98686.73
2023-03-29T07:24:14.671Z,98693.17
2023-03-29T07:26:52.258Z,98697.25
2023-03-29T07:29:25.147Z,98702.02
2023-03-29T07:31:53.575Z,98713.84
2023-03-29T07:34:51.501Z,98713.64
2023-03-29T07:37:27.362Z,98713.86
2023-03-29T07:39:58.034Z,98721.55
2023-03-29T07:42:54.614Z,98716.05
2023-03-29T07:45:26.656Z,98716.92
2023-03-29T07:48:02.496Z,98726.52
2023-03-29T07:50:43.462Z,98721.53
2023-03-29T07:53:13.316Z,98726.91
2023-03-29T07:55:47.641Z,98731.71
2023-03-29T07:58:55.252Z,98738.94
2023-03-29T08:01:24.952Z,98716.88
2023-03-29T08:04:18.271Z,98738.32
2023-03-29T08:07:06.328Z,98738.45
2023-03-29T08:10:14.224Z,98747.73
2023-03-29T08:13:10.259Z,98750.83
2023-03-29T08:16:11.403Z,98750.79
2023-03-29T08:18:44.898Z,98757.45
2023-03-29T08:21:17.577Z,98756.02
2023-03-29T08:23:48.618Z,98767.54
2023-03-29T08:26:21.829Z,98761.70
2023-03-29T08:28:51.137Z,98761.02
2023-03-29T08:31:20.095Z,98757.14
2023-03-29T08:33:48.328Z,98768.65
2023-03-29T08:36:43.789Z,98773.57
2023-03-29T08:39:25.883Z,98775.04
2023-03-29T08:42:18.013Z,98773.02
2023-03-29T08:45:07.995Z,98775.33
2023-03-29T08:47:59.041Z,98769.01
2023-03-29T08:50:35.186Z,98785.27
2023-03-29T08:53:11.288Z,98775.05
2023-03-29T08:56:06.977Z,98782.34
2023-03-29T08:59:23.136Z,98787.14
2023-03-29T09:01:54.010Z,98786.45
2023-03-29T09:04:33.615Z,98796.17
2023-03-29T09:07:24.671Z,98801.50
2023-03-29T09:09:58.522Z,98795.22
2023-03-29T09:13:03.348Z,98800.68
2023-03-29T09:15:45.794Z,98799.22
2023-03-29T09:19:17.195Z,98810.38
2023-03-29T09:22:10.640Z,98813.48
2023-03-29T09:24:54.824Z,98817.16
2023-03-29T09:27:35.981Z,98817.39
2023-03-29T09:30:30.996Z,98814.11
2023-03-29T09:33:28.535Z,98814.05
2023-03-29T09:36:24.478Z,98824.08
2023-03-29T09:38:55.872Z,98824.50
2023-03-29T09:41:31.438Z,98823.99
2023-03-29T09:44:10.897Z,98823.65
2023-03-29T09:46:45.956Z,98824.31
2023-03-29T09:49:41.742Z,98827.85
2023-03-29T09:52:13.330Z,98829.63
2023-03-29T09:54:44.145Z,98830.66
2023-03-29T09:57:32.602Z,98827.20
2023-03-29T10:00:05.823Z,98829.20
2023-03-29T10:02:42.287Z,98833.05
2023-03-29T10:05:15.961Z,98835.23
2023-03-29T10:07:54.633Z,98834.83
2023-03-29T10:11:41.815Z,98831.33
2023-03-29T10:14:17.878Z,98836.36
2023-03-29T10:16:47.883Z,98840.02
2023-03-29T10:19:24.525Z,98840.03
2023-03-29T10:22:07.950Z,98842.92
2023-03-29T10:24:38.614Z,98839.64
2023-03-29T10:27:08.112Z,98845.43
2023-03-29T10:29:41.402Z,98849.29
2023-03-29T10:32:23.336Z,98849.78
2023-03-29T10:34:52.801Z,98855.48
2023-03-29T10:37:23.264Z,98853.98
2023-03-29T10:39:52.417Z,98849.99
2023-03-29T10:42:20.898Z,98844.33
2023-03-29T10:44:57.522Z,98846.54
2023-03-29T10:47:26.393Z,98845.54
2023-03-29T10:49:57.082Z,98858.55
2023-03-29T10:52:26.496Z,98851.03
2023-03-29T10:54:55.586Z,98844.45
2023-03-29T10:57:51.404Z,98848.40
2023-03-29T11:00:58.815Z,98848.01
2023-03-29T11:03:59.093Z,98845.79
2023-03-29T11:07:15.934Z,98852.70
2023-03-29T11:09:53.625Z,98851.27
2023-03-29T11:12:40.745Z,98852.56
2023-03-29T11:15:22.538Z,98848.83
2023-03-29T11:18:22.505Z,98848.38
2023-03-29T11:20:54.535Z,98854.08
2023-03-29T11:23:38.775Z,98859.45
2023-03-29T11:26:27.834Z,98854.33
2023-03-29T11:29:05.330Z,98853.80
2023-03-29T11:31:41.668Z,98856.77
2023-03-29T11:34:16.399Z,98858.62
2023-03-29T11:36:51.455Z,98865.27
2023-03-29T11:39:39.776Z,98873.69
2023-03-29T11:42:12.762Z,98871.77
2023-03-29T11:44:41.955Z,98866.02
2023-03-29T11:47:18.321Z,98868.53
2023-03-29T11:50:00.433Z,98856.71
2023-03-29T11:52:36.789Z,98861.02
2023-03-29T11:55:10.219Z,98867.79
2023-03-29T11:57:41.579Z,98862.73
2023-03-29T12:00:21.885Z,98879.77
2023-03-29T12:03:07.825Z,98875.62
2023-03-29T12:05:37.691Z,98877.02
2023-03-29T12:08:23.879Z,98877.46
2023-03-29T12:11:20.044Z,98887.86
2023-03-29T12:13:55.461Z,98882.27
2023-03-29T12:16:53.036Z,98879.85
2023-03-29T12:19:44.753Z,98887.23
2023-03-29T12:22:22.551Z,98886.19
2023-03-29T12:24:52.038Z,98897.77
2023-03-29T12:27:27.251Z,98889.38
2023-03-29T12:30:02.113Z,98907.50
2023-03-29T12:32:52.934Z,98900.61
2023-03-29T12:35:54.472Z,98896.86
2023-03-29T12:38:55.198Z,98898.15
2023-03-29T12:41:45.995Z,98903.87
2023-03-29T12:44:59.469Z,98909.19
2023-03-29T12:47:42.721Z,98904.69
2023-03-29T12:50:38.539Z,98910.72
2023-03-29T12:53:15.813Z,98904.03
2023-03-29T12:55:44.655Z,98903.94
2023-03-29T12:58:27.247Z,98907.02
2023-03-29T13:01:24.697Z,98915.07
2023-03-29T13:03:58.327Z,98910.29
2023-03-29T13:06:48.621Z,98906.95
2023-03-29T13:09:23.533Z,98918.90
2023-03-29T13:11:56.525Z,98914.77
2023-03-29T13:14:28.026Z,98910.79
2023-03-29T13:17:18.393Z,98909.86
2023-03-29T13:19:58.110Z,98912.93
2023-03-29T13:23:10.317Z,98916.50
2023-03-29T13:25:50.735Z,98912.73
2023-03-29T13:28:22.728Z,98921.39
2023-03-29T13:31:04.545Z,98914.95
2023-03-29T13:33:43.034Z,98926.05
2023-03-29T13:36:33.038Z,98931.32
2023-03-29T13:39:05.694Z,98922.43
2023-03-29T13:41:39.700Z,98922.65
2023-03-29T13:44:44.634Z,98934.45
2023-03-29T13:47:19.054Z,98935.79
2023-03-29T13:49:54.723Z,98925.52
2023-03-29T13:52:47.864Z,98925.30
2023-03-29T13:55:22.703Z,98935.09
2023-03-29T13:58:01.721Z,98931.25
2023-03-29T14:01:06.496Z,98929.21
2023-03-29T14:03:47.518Z,98938.30
2023-03-29T14:06:18.552Z,98934.54
2023-03-29T14:08:54.208Z,98936.64
2023-03-29T14:11:27.694Z,98932.99
2023-03-29T14:14:00.086Z,98938.54
2023-03-29T14:16:30.922Z,98944.81
2023-03-29T14:19:22.131Z,98955.58
2023-03-29T14:21:53.666Z,98945.52
2023-03-29T14:24:26.097Z,98955.92
2023-03-29T14:26:55.128Z,98952.64
2023-03-29T14:29:34.060Z,98954.45
2023-03-29T14:32:13.262Z,98956.24
2023-03-29T14:34:42.073Z,98960.39
2023-03-29T14:37:12.304Z,98950.88
2023-03-29T14:39:41.821Z,98957.63
2023-03-29T14:42:21.439Z,98952.53
2023-03-29T14:44:50.530Z,98955.84
2023-03-29T14:47:29.367Z,98961.37
2023-03-29T14:50:00.844Z,98960.14
2023-03-29T14:52:31.530Z,98956.42
2023-03-29T14:55:00.736Z,98962.45
2023-03-29T14:57:34.242Z,98963.64
2023-03-29T15:00:17.460Z,98970.00
2023-03-29T15:02:55.254Z,98965.64
2023-03-29T15:05:47.701Z,98972.66
2023-03-29T15:08:29.385Z,98973.38
2023-03-29T15:10:59.197Z,98975.93
2023-03-29T15:13:28.798Z,98976.20
2023-03-29T15:16:00.831Z,98973.98
2023-03-29T15:18:35.358Z,98976.67
2023-03-29T15:21:04.056Z,98982.83
2023-03-29T15:23:48.408Z,98981.27
2023-03-29T15:26:32.448Z,98975.52
2023-03-29T15:29:17.357Z,98978.52
2023-03-29T15:31:54.491Z,98978.34
2023-03-29T15:34:28.004Z,98988.08
2023-03-29T15:36:58.164Z,98985.52
2023-03-29T15:39:27.992Z,98995.38
2023-03-29T15:41:57.209Z,98994.54
2023-03-29T15:44:30.305Z,98998.15
2023-03-29T15:47:00.267Z,98999.67
2023-03-29T15:49:28.905Z,99004.83
2023-03-29T15:51:59.854Z,99005.65
2023-03-29T15:54:29.300Z,99007.20
2023-03-29T15:57:03.758Z,99012.63
2023-03-29T15:59:33.686Z,99014.83
2023-03-29T16:02:02.111Z,99012.49
2023-03-29T16:04:30.739Z,99019.42
2023-03-29T16:06:59.463Z,99017.80
2023-03-29T16:09:27.830Z,99023.48
2023-03-29T16:12:02.624Z,99026.61
2023-03-29T16:14:33.122Z,99026.38
2023-03-29T16:17:03.407Z,99034.27
2023-03-29T16:19:32.888Z,99035.95
2023-03-29T16:22:02.642Z,99035.11
2023-03-29T16:24:32.338Z,99035.43
2023-03-29T16:27:01.917Z,99037.95
2023-03-29T16:29:31.095Z,99040.29
2023-03-29T16:32:00.043Z,99044.45
2023-03-29T16:34:28.863Z,99046.15
2023-03-29T16:36:57.550Z,99049.56
2023-03-29T16:39:29.615Z,99053.19
2023-03-29T16:41:58.302Z,99054.02
2023-03-29T16:44:28.313Z,99056.27
2023-03-29T16:46:59.605Z,99056.20
2023-03-29T16:49:28.672Z,99056.27
2023-03-29T16:52:01.617Z,99059.77
2023-03-29T16:54:32.027Z,99060.94
2023-03-29T16:57:00.554Z,99063.81
2023-03-29T16:59:29.463Z,99068.43
2023-03-29T17:01:58.144Z,99070.79
2023-03-29T17:04:26.858Z,99072.52
2023-03-29T17:06:55.469Z,99073.59
2023-03-29T17:09:23.952Z,99075.46
2023-03-29T17:11:52.709Z,99071.94
2023-03-29T17:14:21.266Z,99076.43
2023-03-29T17:16:49.905Z,99077.30
2023-03-29T17:19:18.305Z,99085.25
2023-03-29T17:21:46.776Z,99083.85
2023-03-29T17:24:15.547Z,99083.90
2023-03-29T17:26:45.975Z,99083.83
2023-03-29T17:29:14.653Z,99090.67
2023-03-29T17:31:48.042Z,99089.06
2023-03-29T17:34:17.865Z,99090.71
2023-03-29T17:36:46.856Z,99097.40
2023-03-29T17:39:16.156Z,99097.38
2023-03-29T17:41:46.882Z,99096.14
2023-03-29T17:44:18.435Z,99095.92
2023-03-29T17:46:47.464Z,99099.59
2023-03-29T17:49:17.238Z,99097.85
2023-03-29T17:51:46.530Z,99102.71
2023-03-29T17:54:15.115Z,99107.40
2023-03-29T17:56:43.821Z,99106.75
2023-03-29T17:59:12.787Z,99110.65
2023-03-29T18:01:42.779Z,99111.95
2023-03-29T18:04:12.217Z,99111.54
2023-03-29T18:06:40.886Z,99112.70
2023-03-29T18:09:13.468Z,99115.36
2023-03-29T18:11:43.170Z,99118.55
2023-03-29T18:14:11.750Z,99120.61
2023-03-29T18:16:43.758Z,99121.30
2023-03-29T18:19:13.941Z,99123.45
2023-03-29T18:21:42.616Z,99123.54
2023-03-29T18:24:11.268Z,99129.63
2023-03-29T18:26:39.624Z,99126.94
2023-03-29T18:29:11.473Z,99129.14
2023-03-29T18:31:41.387Z,99127.71
2023-03-29T18:34:10.031Z,99124.71
2023-03-29T18:36:38.819Z,99130.36
2023-03-29T18:39:07.622Z,99135.44
2023-03-29T18:41:37.587Z,99134.14
2023-03-29T18:44:07.964Z,99130.19
2023-03-29T18:46:36.674Z,99134.17
2023-03-29T18:49:07.799Z,99135.73
2023-03-29T18:51:36.659Z,99138.73
2023-03-29T18:54:05.754Z,99141.81
2023-03-29T18:56:34.542Z,99143.91
2023-03-29T18:59:06.639Z,99142.18
2023-03-29T19:01:36.140Z,99144.75
2023-03-29T19:04:04.912Z,99144.15
2023-03-29T19:06:34.156Z,99143.90
2023-03-29T19:09:04.532Z,99144.84
2023-03-29T19:11:33.620Z,99141.13
2023-03-29T19:14:03.450Z,99143.34
2023-03-29T19:16:33.742Z,99144.37
2023-03-29T19:19:02.635Z,99145.36
2023-03-29T19:21:36.155Z,99148.27
2023-03-29T19:24:05.933Z,99146.83
2023-03-29T19:26:34.430Z,99148.77
2023-03-29T19:29:03.817Z,99150.13
2023-03-29T19:31:33.819Z,99149.46
2023-03-29T19:34:02.307Z,99149.30
2023-03-29T19:36:33.151Z,99148.70
2023-03-29T19:39:02.131Z,99151.98
2023-03-29T19:41:30.914Z,99147.90
2023-03-29T19:43:59.701Z,99147.47
2023-03-29T19:46:29.325Z,99151.23
2023-03-29T19:48:59.936Z,99151.71
2023-03-29T19:51:28.734Z,99150.96
2023-03-29T19:53:57.507Z,99150.52
2023-03-29T19:56:30.283Z,99151.79
2023-03-29T19:58:58.865Z,99149.96
2023-03-29T20:01:28.519Z,99148.98
2023-03-29T20:03:58.408Z,99149.30
2023-03-29T20:06:26.961Z,99149.17
2023-03-29T20:08:56.777Z,99151.86
2023-03-29T20:11:25.981Z,99154.50
2023-03-29T20:13:55.374Z,99153.27
2023-03-29T20:16:25.933Z,99158.73
2023-03-29T20:18:57.347Z,99159.31
2023-03-29T20:21:26.031Z,99158.17
2023-03-29T20:23:58.710Z,99160.79
2023-03-29T20:26:28.421Z,99164.94
2023-03-29T20:28:56.796Z,99168.23
2023-03-29T20:31:25.369Z,99166.71
2023-03-29T20:33:55.165Z,99167.77
2023-03-29T20:36:26.935Z,99168.58
2023-03-29T20:38:56.652Z,99170.09
2023-03-29T20:41:26.156Z,99172.59
2023-03-29T20:44:00.785Z,99174.08
2023-03-29T20:46:33.912Z,99176.83
2023-03-29T20:49:04.735Z,99181.77
2023-03-29T20:51:33.488Z,99180.47
2023-03-29T20:54:05.030Z,99180.00
2023-03-29T20:56:39.150Z,99178.49
2023-03-29T20:59:10.951Z,99173.38
2023-03-29T21:01:41.006Z,99174.80
2023-03-29T21:04:11.217Z,99174.00
2023-03-29T21:06:40.034Z,99175.58
2023-03-29T21:09:08.811Z,99174.45
2023-03-29T21:11:41.697Z,99175.63
2023-03-29T21:14:10.381Z,99172.80
2023-03-29T21:16:42.591Z,99169.85
2023-03-29T21:19:15.230Z,99167.53
2023-03-29T21:21:45.135Z,99173.13
2023-03-29T21:24:14.122Z,99168.41
2023-03-29T21:26:43.627Z,99168.17
2023-03-29T21:29:12.106Z,99170.28
2023-03-29T21:31:41.091Z,99171.00
2023-03-29T21:34:09.778Z,99172.91
2023-03-29T21:36:40.102Z,99176.27
2023-03-29T21:39:08.580Z,99176.23
2023-03-29T21:41:37.367Z,99172.83
2023-03-29T21:44:08.714Z,99173.83
2023-03-29T21:46:37.741Z,99173.64
2023-03-29T21:49:08.029Z,99170.11
2023-03-29T21:51:36.688Z,99171.70
2023-03-29T21:54:05.310Z,99168.98
2023-03-29T21:56:34.691Z,99168.10
2023-03-29T21:59:03.275Z,99167.85
2023-03-29T22:01:31.941Z,99172.23
2023-03-29T22:04:00.866Z,99177.04
2023-03-29T22:06:30.251Z,99177.25
2023-03-29T22:09:00.981Z,99179.43
2023-03-29T22:11:29.875Z,99179.98
2023-03-29T22:13:58.962Z,99184.22
2023-03-29T22:16:28.705Z,99188.57
2023-03-29T22:18:58.182Z,99189.33
2023-03-29T22:21:31.412Z,99191.56
2023-03-29T22:24:01.134Z,99193.73
2023-03-29T22:26:31.293Z,99196.20
2023-03-29T22:29:02.122Z,99197.74
2023-03-29T22:31:31.298Z,99195.96
2023-03-29T22:34:01.027Z,99195.85
2023-03-29T22:36:30.882Z,99196.69
2023-03-29T22:38:59.538Z,99197.07
2023-03-29T22:41:28.510Z,99201.80
2023-03-29T22:43:58.524Z,99200.88
2023-03-29T22:46:27.587Z,99201.94
2023-03-29T22:48:56.917Z,99204.80
2023-03-29T22:51:26.523Z,99204.64
2023-03-29T22:53:55.208Z,99201.97
2023-03-29T22:56:25.118Z,99203.95
2023-03-29T22:58:53.802Z,99200.84
2023-03-29T23:01:22.502Z,99197.46
2023-03-29T23:03:51.235Z,99197.05
2023-03-29T23:06:20.371Z,99197.53
2023-03-29T23:08:49.052Z,99201.34
2023-03-29T23:11:22.035Z,99201.28
2023-03-29T23:13:50.826Z,99205.80
2023-03-29T23:16:22.001Z,99207.27
2023-03-29T23:18:51.260Z,99208.45
2023-03-29T23:21:20.454Z,99206.27
2023-03-29T23:23:49.753Z,99207.38
2023-03-29T23:26:19.256Z,99209.28
2023-03-29T23:28:47.939Z,99212.51
2023-03-29T23:31:20.495Z,99216.61
2023-03-29T23:33:49.823Z,99221.17
2023-03-29T23:36:18.916Z,99226.23
2023-03-29T23:38:48.314Z,99225.32
2023-03-29T23:41:18.020Z,99228.45
2023-03-29T23:43:50.503Z,99233.20
2023-03-29T23:46:19.319Z,99239.17
2023-03-29T23:48:49.356Z,99237.23
2023-03-29T23:51:19.096Z,99243.05
2023-03-29T23:53:48.091Z,99240.31
2023-03-29T23:56:21.893Z,99243.09
2023-03-29T23:58:52.325Z,99241.90
